createdAt,value
2022-10-11T00:00:14.264Z,37.20
2022-10-11T00:03:40.291Z,41.90
2022-10-11T00:07:01.701Z,37.40
2022-10-11T00:10:08.310Z,26.10
2022-10-11T00:13:14.348Z,18.10
2022-10-11T00:16:36.779Z,17.60
2022-10-11T00:19:39.559Z,19.60
2022-10-11T00:22:37.351Z,27.10
2022-10-11T00:25:46.279Z,24.70
2022-10-11T00:28:54.453Z,22.10
2022-10-11T00:31:57.279Z,22.60
2022-10-11T00:35:12.322Z,23.70
2022-10-11T00:38:11.259Z,29.50
2022-10-11T00:41:20.288Z,32.20
2022-10-11T00:44:14.283Z,27.40
2022-10-11T00:47:14.259Z,28.60
2022-10-11T00:50:26.231Z,29.20
2022-10-11T00:53:38.274Z,32.60
2022-10-11T00:56:48.248Z,50.10
2022-10-11T00:59:54.249Z,56.10
2022-10-11T01:03:01.260Z,42.70
2022-10-11T01:06:07.720Z,40.10
2022-10-11T01:09:04.604Z,36.50
2022-10-11T01:12:05.309Z,31.00
2022-10-11T01:15:02.280Z,32.40
2022-10-11T01:18:14.285Z,30.50
2022-10-11T01:25:11.878Z,26.30
2022-10-11T01:28:09.492Z,25.70
2022-10-11T01:31:04.353Z,27.00
2022-10-11T01:34:12.244Z,26.10
2022-10-11T01:37:06.295Z,24.70
2022-10-11T01:39:54.580Z,24.90
2022-10-11T01:43:00.345Z,24.40
2022-10-11T01:46:18.249Z,24.20
2022-10-11T01:49:18.219Z,28.00
2022-10-11T01:52:15.272Z,26.30
2022-10-11T01:55:25.308Z,25.20
2022-10-11T01:58:20.249Z,28.50
2022-10-11T02:01:31.358Z,27.00
2022-10-11T02:04:47.596Z,27.90
2022-10-11T02:08:02.304Z,28.80
2022-10-11T02:11:11.276Z,26.40
2022-10-11T02:14:08.322Z,26.10
2022-10-11T02:17:19.307Z,27.00
2022-10-11T02:20:28.332Z,27.20
2022-10-11T02:23:26.315Z,29.80
2022-10-11T02:26:38.300Z,30.80
2022-10-11T02:29:47.267Z,29.90
2022-10-11T02:32:56.339Z,26.70
2022-10-11T02:36:13.202Z,24.90
2022-10-11T02:39:14.271Z,24.90
2022-10-11T02:42:23.258Z,22.90
2022-10-11T02:45:23.200Z,21.90
2022-10-11T02:48:33.299Z,22.00
2022-10-11T02:51:47.217Z,21.10
2022-10-11T02:54:45.284Z,19.70
2022-10-11T02:57:40.223Z,19.80
2022-10-11T03:00:21.701Z,20.50
2022-10-11T03:03:01.406Z,19.80
2022-10-11T03:05:45.281Z,20.60
2022-10-11T03:08:30.103Z,19.70
2022-10-11T03:11:36.265Z,18.60
2022-10-11T03:14:31.444Z,21.70
2022-10-11T03:17:35.203Z,22.80
2022-10-11T03:20:29.320Z,21.60
2022-10-11T03:23:23.280Z,22.00
2022-10-11T03:26:27.278Z,22.40
2022-10-11T03:29:16.215Z,23.80
2022-10-11T03:32:10.303Z,22.70
2022-10-11T03:35:05.343Z,23.00
2022-10-11T03:38:00.330Z,24.10
2022-10-11T03:41:23.344Z,23.80
2022-10-11T03:44:06.444Z,24.10
2022-10-11T03:46:46.417Z,23.10
2022-10-11T03:49:44.315Z,25.20
2022-10-11T03:52:43.476Z,24.00
2022-10-11T03:55:52.290Z,22.70
2022-10-11T03:59:06.218Z,21.30
2022-10-11T04:02:21.282Z,20.30
2022-10-11T04:05:33.232Z,19.20
2022-10-11T04:08:37.267Z,17.90
2022-10-11T04:11:50.317Z,15.90
2022-10-11T04:18:09.265Z,14.60
2022-10-11T04:24:48.313Z,15.00
2022-10-11T04:31:19.315Z,19.30
2022-10-11T04:34:31.216Z,19.60
2022-10-11T04:37:43.339Z,19.40
2022-10-11T04:40:57.226Z,19.10
2022-10-11T04:51:02.311Z,20.30
2022-10-11T04:54:18.561Z,22.60
2022-10-11T04:57:42.589Z,20.40
2022-10-11T05:00:48.244Z,20.10
2022-10-11T05:07:24.661Z,19.50
2022-10-11T05:10:54.972Z,19.10
2022-10-11T05:14:07.264Z,17.40
2022-10-11T05:17:24.345Z,16.30
2022-10-11T05:20:20.598Z,16.70
2022-10-11T05:22:48.954Z,16.80
2022-10-11T05:25:47.803Z,17.90
2022-10-11T05:28:58.367Z,16.60
2022-10-11T05:32:13.383Z,17.70
2022-10-11T05:35:22.117Z,18.20
2022-10-11T05:38:47.367Z,22.10
2022-10-11T05:45:06.447Z,19.20
2022-10-11T05:51:59.307Z,23.00
2022-10-11T05:55:21.486Z,28.60
2022-10-11T05:58:13.236Z,34.00
2022-10-11T06:01:22.338Z,25.50
2022-10-11T06:08:27.436Z,33.30
2022-10-11T06:11:33.838Z,35.10
2022-10-11T06:17:55.496Z,30.80
2022-10-11T06:20:41.677Z,34.70
2022-10-11T07:17:30.971Z,32.30
2022-10-11T07:22:04.500Z,30.40
2022-10-11T07:24:45.698Z,30.10
2022-10-11T07:27:27.561Z,30.80
2022-10-11T07:30:32.725Z,28.30
2022-10-11T07:33:17.015Z,20.30
2022-10-11T07:35:58.053Z,20.20
2022-10-11T07:38:33.643Z,19.00
2022-10-11T07:41:11.234Z,18.50
2022-10-11T07:44:08.492Z,17.60
2022-10-11T07:47:11.371Z,18.90
2022-10-11T07:49:43.053Z,19.30
2022-10-11T07:52:11.498Z,19.30
2022-10-11T07:54:43.612Z,18.80
2022-10-11T07:57:12.029Z,18.40
2022-10-11T07:59:46.671Z,18.40
2022-10-11T08:02:20.023Z,19.10
2022-10-11T08:04:55.475Z,20.70
2022-10-11T08:07:32.993Z,20.20
2022-10-11T08:10:08.092Z,19.50
2022-10-11T08:12:37.556Z,20.80
2022-10-11T08:15:12.976Z,20.60
2022-10-11T08:17:42.675Z,20.00
2022-10-11T08:20:12.410Z,19.60
2022-10-11T08:22:43.500Z,19.80
2022-10-11T08:25:15.649Z,20.20
2022-10-11T08:27:47.373Z,22.20
2022-10-11T08:30:27.181Z,22.00
2022-10-11T08:33:26.195Z,18.80
2022-10-11T08:40:04.226Z,18.90
2022-10-11T09:43:23.381Z,18.10
2022-10-11T09:45:53.870Z,19.30
2022-10-11T09:49:02.798Z,19.90
2022-10-11T09:58:36.680Z,17.60
2022-10-11T10:01:48.373Z,18.60
2022-10-11T10:04:20.109Z,19.40
2022-10-11T10:07:08.238Z,20.00
2022-10-11T10:09:43.384Z,18.70
2022-10-11T10:12:19.483Z,20.10
2022-10-11T10:15:21.689Z,20.00
2022-10-11T10:20:36.583Z,18.50
2022-10-11T10:23:12.207Z,18.70
2022-10-11T10:25:51.039Z,19.00
2022-10-11T10:28:24.170Z,18.70
2022-10-11T10:30:56.521Z,17.60
2022-10-11T10:33:27.796Z,16.40
2022-10-11T10:36:01.200Z,17.40
2022-10-11T10:38:43.009Z,18.10
2022-10-11T10:41:20.219Z,17.30
2022-10-11T10:44:01.153Z,16.20
2022-10-11T10:46:49.931Z,16.70
2022-10-11T10:49:53.768Z,17.30
2022-10-11T10:52:58.008Z,14.20
2022-10-11T10:55:43.530Z,14.70
2022-10-11T10:58:58.937Z,7.70
2022-10-11T11:01:33.742Z,9.00
2022-10-11T11:04:30.767Z,8.70
2022-10-11T11:07:37.316Z,8.00
2022-10-11T11:10:31.430Z,7.80
2022-10-11T11:13:30.077Z,8.10
2022-10-11T11:16:30.299Z,8.70
2022-10-11T11:19:26.477Z,11.00
2022-10-11T11:22:29.187Z,11.80
2022-10-11T11:25:40.264Z,11.20
2022-10-11T11:28:38.529Z,11.00
2022-10-11T11:31:57.781Z,11.50
2022-10-11T11:34:45.402Z,10.80
2022-10-11T11:37:35.894Z,11.30
2022-10-11T11:40:16.548Z,11.30
2022-10-11T11:42:59.586Z,11.90
2022-10-11T11:46:01.945Z,12.60
2022-10-11T11:48:38.701Z,11.90
2022-10-11T11:51:30.596Z,12.20
2022-10-11T11:58:23.140Z,11.90
2022-10-11T12:02:06.732Z,12.00
2022-10-11T12:08:16.604Z,11.20
2022-10-11T12:08:48.616Z,11.00
2022-10-11T12:15:02.680Z,10.00
2022-10-11T12:15:26.257Z,10.20
2022-10-11T12:18:14.379Z,10.30
2022-10-11T12:21:13.532Z,10.50
2022-10-11T12:23:49.281Z,9.30
2022-10-11T12:26:39.408Z,11.00
2022-10-11T12:29:59.057Z,11.20
2022-10-11T12:32:50.619Z,12.10
2022-10-11T12:35:44.140Z,10.10
2022-10-11T12:38:29.004Z,10.70
2022-10-11T12:41:36.599Z,10.90
2022-10-11T12:44:23.089Z,10.10
2022-10-11T12:47:26.713Z,11.40
2022-10-11T12:50:29.017Z,11.50
2022-10-11T12:53:16.860Z,10.50
2022-10-11T12:56:01.723Z,10.70
2022-10-11T12:58:48.575Z,10.40
2022-10-11T13:01:23.958Z,11.20
2022-10-11T13:04:11.456Z,11.10
2022-10-11T13:06:54.857Z,12.00
2022-10-11T13:09:32.578Z,12.50
2022-10-11T13:12:10.230Z,13.50
2022-10-11T13:15:01.037Z,14.00
2022-10-11T13:17:37.997Z,12.40
2022-10-11T13:20:38.953Z,13.50
2022-10-11T13:24:32.811Z,12.60
2022-10-11T13:27:29.004Z,12.40
2022-10-11T13:30:33.417Z,11.70
2022-10-11T13:36:05.432Z,10.40
2022-10-11T13:38:55.755Z,10.70
2022-10-11T13:41:50.648Z,11.00
2022-10-11T13:44:36.122Z,10.90
2022-10-11T13:47:06.754Z,11.10
2022-10-11T13:49:38.442Z,10.30
2022-10-11T13:52:23.355Z,10.70
2022-10-11T13:54:58.176Z,9.50
2022-10-11T13:57:45.254Z,10.80
2022-10-11T14:00:25.756Z,10.10
2022-10-11T14:03:08.535Z,10.00
2022-10-11T14:05:42.859Z,10.40
2022-10-11T14:08:27.761Z,10.40
2022-10-11T14:10:58.569Z,10.20
2022-10-11T14:13:33.427Z,9.60
2022-10-11T14:16:07.709Z,9.90
2022-10-11T14:18:44.015Z,10.30
2022-10-11T14:21:31.827Z,9.80
2022-10-11T14:24:04.914Z,9.80
2022-10-11T14:26:38.483Z,10.70
2022-10-11T14:29:23.447Z,10.80
2022-10-11T14:31:52.953Z,11.40
2022-10-11T14:34:23.146Z,10.00
2022-10-11T14:36:51.298Z,11.00
2022-10-11T14:39:23.135Z,11.00
2022-10-11T14:41:52.757Z,10.60
2022-10-11T14:44:22.342Z,10.80
2022-10-11T14:46:54.570Z,9.70
2022-10-11T14:49:26.023Z,9.10
2022-10-11T14:51:56.515Z,9.40
2022-10-11T14:54:27.340Z,9.70
2022-10-11T14:56:57.445Z,9.30
2022-10-11T14:59:29.017Z,9.60
2022-10-11T15:01:56.975Z,9.50
2022-10-11T15:04:26.543Z,9.60
2022-10-11T15:06:56.247Z,9.90
2022-10-11T15:09:29.580Z,8.90
2022-10-11T15:11:58.155Z,8.80
2022-10-11T15:14:26.388Z,8.70
2022-10-11T15:16:56.118Z,8.70
2022-10-11T15:19:25.416Z,9.20
2022-10-11T15:21:53.351Z,9.50
2022-10-11T15:24:21.451Z,9.70
2022-10-11T15:26:50.418Z,8.50
2022-10-11T15:29:18.855Z,9.20
2022-10-11T15:31:46.844Z,9.40
2022-10-11T15:34:15.239Z,9.30
2022-10-11T15:36:43.094Z,10.80
2022-10-11T15:39:30.631Z,9.50
2022-10-11T15:41:59.381Z,9.80
2022-10-11T15:44:36.881Z,11.40
2022-10-11T15:47:05.119Z,9.90
2022-10-11T15:49:33.333Z,10.60
2022-10-11T15:52:01.789Z,10.20
2022-10-11T15:54:30.278Z,9.80
2022-10-11T15:56:58.741Z,11.00
2022-10-11T15:59:26.790Z,10.90
2022-10-11T16:01:54.844Z,10.80
2022-10-11T16:04:22.771Z,10.60
2022-10-11T16:06:50.691Z,10.80
2022-10-11T16:09:18.626Z,10.60
2022-10-11T16:11:46.445Z,10.70
2022-10-11T16:14:14.328Z,11.00
2022-10-11T16:16:42.255Z,11.50
2022-10-11T16:19:10.162Z,11.90
2022-10-11T16:21:38.041Z,12.10
2022-10-11T16:24:05.959Z,12.20
2022-10-11T16:26:33.986Z,12.20
2022-10-11T16:29:01.896Z,11.10
2022-10-11T16:31:29.785Z,12.30
2022-10-11T16:33:57.695Z,12.80
2022-10-11T16:36:35.135Z,13.10
2022-10-11T16:39:09.046Z,12.70
2022-10-11T16:41:37.514Z,13.30
2022-10-11T16:44:06.784Z,12.40
2022-10-11T16:46:35.105Z,13.60
2022-10-11T16:49:03.997Z,12.00
2022-10-11T16:51:31.967Z,11.60
2022-10-11T16:53:59.807Z,11.20
2022-10-11T16:56:28.192Z,11.60
2022-10-11T16:58:56.099Z,10.40
2022-10-11T17:01:26.965Z,11.50
2022-10-11T17:03:55.857Z,10.80
2022-10-11T17:06:23.986Z,12.80
2022-10-11T17:08:52.927Z,11.10
2022-10-11T17:11:22.417Z,12.00
2022-10-11T17:13:53.309Z,12.20
2022-10-11T17:16:22.176Z,12.20
2022-10-11T17:18:50.248Z,12.60
2022-10-11T17:21:20.168Z,13.20
2022-10-11T17:24:00.506Z,12.10
2022-10-11T17:26:30.487Z,12.80
2022-10-11T17:29:00.370Z,11.90
2022-10-11T17:31:29.824Z,12.20
2022-10-11T17:34:00.447Z,12.10
2022-10-11T17:36:31.802Z,12.40
2022-10-11T17:39:01.699Z,13.50
2022-10-11T17:41:32.191Z,12.80
2022-10-11T17:44:02.839Z,11.90
2022-10-11T17:46:39.436Z,14.80
2022-10-11T17:51:39.814Z,16.80
2022-10-11T17:54:12.474Z,16.40
2022-10-11T17:56:41.814Z,19.60
2022-10-11T17:59:17.178Z,17.60
2022-10-11T18:01:45.275Z,17.10
2022-10-11T18:04:16.761Z,16.00
2022-10-11T18:06:49.372Z,14.50
2022-10-11T18:09:18.812Z,13.40
2022-10-11T18:11:47.450Z,13.10
2022-10-11T18:14:15.745Z,12.60
2022-10-11T18:16:43.826Z,11.50
2022-10-11T18:19:13.183Z,12.20
2022-10-11T18:21:41.420Z,12.70
2022-10-11T18:24:15.053Z,11.90
2022-10-11T18:26:45.459Z,12.10
2022-10-11T18:29:13.800Z,10.80
2022-10-11T18:31:42.194Z,11.80
2022-10-11T18:38:55.015Z,11.60
2022-10-11T18:41:30.766Z,11.60
2022-10-11T18:44:01.768Z,12.20
2022-10-11T18:46:30.427Z,12.20
2022-10-11T18:49:02.106Z,12.60
2022-10-11T18:51:35.931Z,13.40
2022-10-11T18:54:06.223Z,12.00
2022-10-11T18:56:36.825Z,12.20
2022-10-11T18:59:06.514Z,13.80
2022-10-11T19:01:38.451Z,13.20
2022-10-11T19:04:09.778Z,12.50
2022-10-11T19:06:41.337Z,12.90
2022-10-11T19:09:13.261Z,13.40
2022-10-11T19:11:41.795Z,14.00
2022-10-11T19:14:14.565Z,14.40
2022-10-11T19:16:46.227Z,13.40
2022-10-11T19:19:14.390Z,12.60
2022-10-11T19:21:42.732Z,13.70
2022-10-11T19:24:10.858Z,13.90
2022-10-11T19:26:40.886Z,13.10
2022-10-11T19:29:14.983Z,13.20
2022-10-11T19:31:45.711Z,12.70
2022-10-11T19:34:14.046Z,12.10
2022-10-11T19:36:42.731Z,12.00
2022-10-11T19:39:14.216Z,12.40
2022-10-11T19:41:43.295Z,12.20
2022-10-11T19:44:12.758Z,12.10
2022-10-11T19:46:57.538Z,11.20
2022-10-11T19:49:27.239Z,11.60
2022-10-11T19:51:55.838Z,12.10
2022-10-11T19:54:23.970Z,12.30
2022-10-11T19:56:52.567Z,12.10
2022-10-11T19:59:20.566Z,12.50
2022-10-11T20:01:52.762Z,11.20
2022-10-11T20:04:50.498Z,13.60
2022-10-11T20:07:10.480Z,13.00
2022-10-11T20:09:38.560Z,13.40
2022-10-11T20:12:09.649Z,13.20
2022-10-11T20:14:37.584Z,13.40
2022-10-11T20:17:05.561Z,12.60
2022-10-11T20:19:33.407Z,12.20
2022-10-11T20:22:01.596Z,12.40
2022-10-11T20:24:33.553Z,13.20
2022-10-11T20:27:04.520Z,13.00
2022-10-11T20:29:32.710Z,14.10
2022-10-11T20:32:00.653Z,12.90
2022-10-11T20:34:28.843Z,13.00
2022-10-11T20:36:57.018Z,12.70
2022-10-11T20:39:25.387Z,13.20
2022-10-11T20:41:53.387Z,13.40
2022-10-11T20:44:21.651Z,12.60
2022-10-11T20:46:49.955Z,10.40
2022-10-11T20:49:20.082Z,10.40
2022-10-11T20:51:48.677Z,11.10
2022-10-11T20:54:17.205Z,10.00
2022-10-11T20:56:45.195Z,9.80
2022-10-11T20:59:13.133Z,9.70
2022-10-11T21:01:41.690Z,9.70
2022-10-11T21:04:17.666Z,9.20
2022-10-11T21:06:48.175Z,9.80
2022-10-11T21:09:17.218Z,10.40
2022-10-11T21:11:46.090Z,10.50
2022-10-11T21:14:22.369Z,11.30
2022-10-11T21:16:50.264Z,10.80
2022-10-11T21:19:18.352Z,11.70
2022-10-11T21:21:53.305Z,11.50
2022-10-11T21:24:55.702Z,11.00
2022-10-11T21:27:24.920Z,11.20
2022-10-11T21:29:53.139Z,11.80
2022-10-11T21:32:20.877Z,11.10
2022-10-11T21:34:48.709Z,11.50
2022-10-11T21:37:16.487Z,11.70
2022-10-11T21:39:44.273Z,10.50
2022-10-11T21:42:12.107Z,10.80
2022-10-11T21:44:42.977Z,11.90
2022-10-11T21:47:11.179Z,12.00
2022-10-11T21:49:39.009Z,11.20
2022-10-11T21:52:06.832Z,11.40
2022-10-11T21:54:34.697Z,11.20
2022-10-11T21:57:02.670Z,11.90
2022-10-11T21:59:30.470Z,11.00
2022-10-11T22:02:01.895Z,10.50
2022-10-11T22:04:30.228Z,10.10
2022-10-11T22:06:58.092Z,9.40
2022-10-11T22:09:27.689Z,9.10
2022-10-11T22:11:56.630Z,8.30
2022-10-11T22:14:25.077Z,9.50
2022-10-11T22:16:52.854Z,10.30
2022-10-11T22:19:20.992Z,8.40
2022-10-11T22:21:48.847Z,8.60
2022-10-11T22:24:17.159Z,8.50
2022-10-11T22:26:45.107Z,9.10
2022-10-11T22:29:12.878Z,10.00
2022-10-11T22:31:40.753Z,10.10
2022-10-11T22:34:08.715Z,10.70
2022-10-11T22:36:36.542Z,10.40
2022-10-11T22:39:08.595Z,10.20
2022-10-11T22:41:37.409Z,10.90
2022-10-11T22:44:05.736Z,9.80
2022-10-11T22:46:33.585Z,9.50
2022-10-11T22:49:01.744Z,10.20
2022-10-11T22:51:29.675Z,10.40
2022-10-11T22:53:57.439Z,10.80
2022-10-11T22:56:25.401Z,10.50
2022-10-11T22:58:53.214Z,10.60
2022-10-11T23:01:21.037Z,11.00
2022-10-11T23:03:50.803Z,11.10
2022-10-11T23:06:18.752Z,10.50
2022-10-11T23:08:46.718Z,9.60
2022-10-11T23:11:14.603Z,10.10
2022-10-11T23:13:42.402Z,9.40
2022-10-11T23:16:12.376Z,9.30
2022-10-11T23:18:40.234Z,9.10
2022-10-11T23:21:08.528Z,7.70
2022-10-11T23:23:37.016Z,8.00
2022-10-11T23:26:08.128Z,8.40
2022-10-11T23:28:36.175Z,8.90
2022-10-11T23:31:16.731Z,9.20
2022-10-11T23:33:46.203Z,9.80
2022-10-11T23:36:19.948Z,9.50
2022-10-11T23:38:53.339Z,10.00
2022-10-11T23:41:24.262Z,10.30
2022-10-11T23:43:52.641Z,9.60
2022-10-11T23:46:20.799Z,10.30
2022-10-11T23:48:48.688Z,10.40
2022-10-11T23:51:16.607Z,10.10
2022-10-11T23:53:44.660Z,10.00
2022-10-11T23:56:12.975Z,9.90
2022-10-11T23:58:41.107Z,10.90
